createdAt,value
2022-12-17T00:02:28.754Z,62.60
2022-12-17T00:05:15.044Z,59.95
2022-12-17T00:08:01.154Z,62.70
2022-12-17T00:10:47.482Z,58.70
2022-12-17T00:13:40.371Z,64.22
2022-12-17T00:16:26.447Z,69.28
2022-12-17T00:19:12.074Z,54.88
2022-12-17T00:21:58.374Z,60.53
2022-12-17T00:24:44.516Z,62.13
2022-12-17T00:27:30.341Z,62.65
2022-12-17T00:30:16.634Z,62.28
2022-12-17T00:33:02.532Z,58.65
2022-12-17T00:35:48.172Z,64.85
2022-12-17T00:38:35.954Z,60.67
2022-12-17T00:41:22.074Z,59.50
2022-12-17T00:44:08.330Z,54.47
2022-12-17T00:46:54.183Z,56.60
2022-12-17T00:49:41.494Z,60.53
2022-12-17T00:52:27.875Z,55.42
2022-12-17T00:55:14.366Z,66.68
2022-12-17T00:58:00.294Z,70.53
2022-12-17T01:00:47.006Z,65.57
2022-12-17T01:03:33.678Z,63.92
2022-12-17T01:06:22.283Z,59.80
2022-12-17T01:09:08.496Z,50.72
2022-12-17T01:11:56.587Z,68.60
2022-12-17T01:14:44.036Z,45.88
2022-12-17T01:17:30.668Z,61.55
2022-12-17T01:20:16.593Z,68.93
2022-12-17T01:23:04.248Z,56.33
2022-12-17T01:25:49.952Z,68.40
2022-12-17T01:28:43.792Z,66.50
2022-12-17T01:31:35.035Z,58.00
2022-12-17T01:34:21.494Z,62.85
2022-12-17T01:37:07.783Z,68.05
2022-12-17T01:39:53.654Z,68.18
2022-12-17T01:42:39.814Z,63.08
2022-12-17T01:45:31.076Z,61.42
2022-12-17T01:48:23.274Z,66.22
2022-12-17T01:51:15.041Z,57.58
2022-12-17T01:54:08.009Z,59.03
2022-12-17T01:56:56.999Z,64.03
2022-12-17T02:00:12.099Z,57.28
2022-12-17T02:02:58.124Z,55.60
2022-12-17T02:05:57.447Z,59.80
2022-12-17T02:08:48.398Z,52.55
2022-12-17T02:11:59.587Z,53.35
2022-12-17T02:15:05.909Z,59.65
2022-12-17T02:18:09.901Z,57.08
2022-12-17T02:21:02.736Z,58.97
2022-12-17T02:24:15.503Z,52.78
2022-12-17T02:27:14.233Z,54.13
2022-12-17T02:30:04.462Z,57.45
2022-12-17T02:32:53.081Z,52.78
2022-12-17T02:35:44.393Z,50.28
2022-12-17T02:38:44.801Z,54.20
2022-12-17T02:41:40.488Z,51.85
2022-12-17T02:44:27.581Z,57.10
2022-12-17T02:47:15.500Z,54.60
2022-12-17T02:50:01.675Z,60.53
2022-12-17T02:52:49.287Z,51.88
2022-12-17T02:55:35.800Z,57.33
2022-12-17T02:58:21.930Z,57.63
2022-12-17T03:01:07.852Z,54.08
2022-12-17T03:03:54.027Z,52.20
2022-12-17T03:06:40.240Z,55.58
2022-12-17T03:09:26.132Z,56.17
2022-12-17T03:12:12.801Z,53.38
2022-12-17T03:14:58.495Z,51.35
2022-12-17T03:17:44.311Z,57.22
2022-12-17T03:20:30.704Z,50.05
2022-12-17T03:23:24.991Z,53.85
2022-12-17T03:26:10.838Z,55.08
2022-12-17T03:28:56.923Z,57.88
2022-12-17T03:31:42.783Z,63.53
2022-12-17T03:34:29.089Z,51.55
2022-12-17T03:37:14.777Z,60.20
2022-12-17T03:40:01.378Z,54.58
2022-12-17T03:42:47.443Z,51.45
2022-12-17T03:45:33.864Z,59.63
2022-12-17T03:48:25.195Z,56.33
2022-12-17T03:51:11.633Z,55.40
2022-12-17T03:53:58.216Z,55.55
2022-12-17T03:56:44.698Z,56.60
2022-12-17T03:59:31.108Z,63.28
2022-12-17T04:02:31.881Z,54.17
2022-12-17T04:05:20.389Z,57.97
2022-12-17T04:08:06.538Z,54.00
2022-12-17T04:10:52.634Z,55.53
2022-12-17T04:13:41.327Z,56.05
2022-12-17T04:16:30.669Z,54.17
2022-12-17T04:19:17.426Z,55.10
2022-12-17T04:22:04.035Z,60.60
2022-12-17T04:24:50.361Z,56.15
2022-12-17T04:27:36.622Z,51.78
2022-12-17T04:30:23.078Z,49.65
2022-12-17T04:33:08.941Z,51.30
2022-12-17T04:35:54.961Z,49.15
2022-12-17T04:38:40.995Z,57.00
2022-12-17T04:41:27.295Z,59.08
2022-12-17T04:44:13.752Z,55.53
2022-12-17T04:47:00.266Z,58.58
2022-12-17T04:49:46.159Z,54.40
2022-12-17T04:52:32.644Z,55.58
2022-12-17T04:55:18.526Z,58.78
2022-12-17T04:58:05.233Z,59.30
2022-12-17T05:00:51.496Z,52.25
2022-12-17T05:03:38.435Z,59.97
2022-12-17T05:06:24.888Z,54.30
2022-12-17T05:09:11.275Z,52.08
2022-12-17T05:11:57.204Z,60.50
2022-12-17T05:14:43.153Z,59.95
2022-12-17T05:17:28.948Z,60.67
2022-12-17T05:20:14.881Z,55.65
2022-12-17T05:23:00.892Z,57.97
2022-12-17T05:25:46.777Z,55.47
2022-12-17T05:28:32.517Z,60.70
2022-12-17T05:31:18.904Z,58.72
2022-12-17T05:34:04.646Z,51.00
2022-12-17T05:36:50.476Z,58.17
2022-12-17T05:39:36.289Z,58.53
2022-12-17T05:42:22.056Z,51.80
2022-12-17T05:45:08.129Z,58.08
2022-12-17T05:47:54.103Z,57.35
2022-12-17T05:50:39.859Z,57.20
2022-12-17T05:53:25.543Z,54.55
2022-12-17T05:56:11.739Z,50.53
2022-12-17T05:58:58.310Z,58.38
2022-12-17T06:01:44.816Z,52.42
2022-12-17T06:04:31.381Z,53.10
2022-12-17T06:07:17.140Z,51.35
2022-12-17T06:10:02.763Z,56.10
2022-12-17T06:12:48.676Z,53.88
2022-12-17T06:15:34.936Z,55.28
2022-12-17T06:18:20.781Z,54.20
2022-12-17T06:21:07.488Z,52.65
2022-12-17T06:23:53.220Z,56.85
2022-12-17T06:26:38.993Z,50.92
2022-12-17T06:29:24.880Z,53.00
2022-12-17T06:32:10.734Z,49.67
2022-12-17T06:34:56.251Z,50.35
2022-12-17T06:37:41.999Z,54.25
2022-12-17T06:40:28.800Z,48.72
2022-12-17T06:43:15.599Z,44.80
2022-12-17T06:46:01.298Z,48.35
2022-12-17T06:48:47.526Z,52.47
2022-12-17T06:51:33.348Z,43.83
2022-12-17T06:54:19.797Z,47.85
2022-12-17T06:57:13.712Z,49.95
2022-12-17T06:59:59.494Z,46.92
2022-12-17T07:02:45.562Z,49.83
2022-12-17T07:05:32.175Z,44.90
2022-12-17T07:08:19.029Z,54.45
2022-12-17T07:11:05.300Z,53.95
2022-12-17T07:13:51.903Z,45.55
2022-12-17T07:16:38.483Z,51.15
2022-12-17T07:19:27.394Z,51.75
2022-12-17T07:22:15.236Z,51.47
2022-12-17T07:25:01.086Z,50.30
2022-12-17T07:27:47.095Z,49.55
2022-12-17T07:30:33.674Z,51.80
2022-12-17T07:33:21.850Z,52.40
2022-12-17T07:36:08.396Z,54.83
2022-12-17T07:38:55.029Z,47.38
2022-12-17T07:41:42.069Z,54.67
2022-12-17T07:44:28.226Z,54.10
2022-12-17T07:47:14.204Z,52.45
2022-12-17T07:50:00.280Z,49.42
2022-12-17T07:52:57.069Z,48.22
2022-12-17T07:55:43.241Z,51.58
2022-12-17T07:58:30.786Z,48.90
2022-12-17T08:01:20.615Z,55.05
2022-12-17T08:04:06.614Z,48.42
2022-12-17T08:06:58.379Z,57.65
2022-12-17T08:09:46.999Z,52.50
2022-12-17T08:12:34.001Z,52.35
2022-12-17T08:15:20.207Z,43.90
2022-12-17T08:18:06.609Z,50.95
2022-12-17T08:20:52.782Z,50.67
2022-12-17T08:23:38.989Z,52.85
2022-12-17T08:26:25.268Z,50.08
2022-12-17T08:29:11.517Z,47.78
2022-12-17T08:31:57.636Z,53.28
2022-12-17T08:34:43.517Z,49.45
2022-12-17T08:37:29.766Z,55.30
2022-12-17T08:40:15.882Z,52.20
2022-12-17T08:43:01.657Z,52.28
2022-12-17T08:45:47.847Z,52.72
2022-12-17T08:48:33.664Z,58.10
2022-12-17T08:51:20.184Z,54.35
2022-12-17T08:54:06.224Z,58.78
2022-12-17T08:56:52.486Z,54.40
2022-12-17T08:59:38.604Z,47.78
2022-12-17T09:02:25.161Z,53.88
2022-12-17T09:05:10.980Z,55.58
2022-12-17T09:07:57.090Z,55.55
2022-12-17T09:10:43.157Z,49.90
2022-12-17T09:13:28.973Z,49.67
2022-12-17T09:16:15.730Z,54.38
2022-12-17T09:19:01.917Z,57.22
2022-12-17T09:21:49.160Z,49.97
2022-12-17T09:24:35.229Z,49.97
2022-12-17T09:27:20.859Z,46.70
2022-12-17T09:30:07.403Z,46.05
2022-12-17T09:32:56.925Z,49.05
2022-12-17T09:35:43.211Z,47.85
2022-12-17T09:38:33.017Z,47.38
2022-12-17T09:41:31.293Z,48.58
2022-12-17T09:44:45.660Z,51.63
2022-12-17T09:47:43.603Z,52.20
2022-12-17T09:50:34.585Z,41.83
2022-12-17T09:53:27.337Z,46.67
2022-12-17T09:56:13.025Z,46.67
2022-12-17T09:58:59.138Z,47.05
2022-12-17T10:01:53.120Z,46.60
2022-12-17T10:04:50.589Z,52.55
2022-12-17T10:07:42.116Z,52.75
2022-12-17T10:10:49.872Z,49.38
2022-12-17T10:13:41.884Z,52.87
2022-12-17T10:16:50.457Z,48.67
2022-12-17T10:19:58.871Z,44.92
2022-12-17T10:22:44.994Z,45.72
2022-12-17T10:25:41.852Z,43.40
2022-12-17T10:28:32.474Z,47.30
2022-12-17T10:31:19.840Z,45.92
2022-12-17T10:34:06.189Z,43.97
2022-12-17T10:37:03.087Z,46.70
2022-12-17T10:39:49.803Z,47.60
2022-12-17T10:42:41.577Z,46.33
2022-12-17T10:45:37.127Z,45.05
2022-12-17T10:48:24.122Z,46.63
2022-12-17T10:51:10.175Z,44.15
2022-12-17T10:53:56.001Z,44.55
2022-12-17T10:56:45.421Z,41.00
2022-12-17T10:59:41.050Z,49.63
2022-12-17T11:02:38.560Z,46.08
2022-12-17T11:05:39.812Z,45.20
2022-12-17T11:08:27.111Z,46.83
2022-12-17T11:11:12.977Z,49.75
2022-12-17T11:14:04.057Z,40.35
2022-12-17T11:17:19.019Z,45.45
2022-12-17T11:20:20.602Z,43.22
2022-12-17T11:23:10.335Z,45.05
2022-12-17T11:26:21.352Z,44.03
2022-12-17T11:29:07.660Z,45.92
2022-12-17T11:32:21.691Z,40.50
2022-12-17T11:35:32.343Z,46.63
2022-12-17T11:38:18.356Z,45.50
2022-12-17T11:41:12.164Z,49.38
2022-12-17T11:44:13.489Z,43.03
2022-12-17T11:47:30.926Z,42.05
2022-12-17T11:50:35.388Z,34.97
2022-12-17T11:53:59.775Z,46.00
2022-12-17T11:56:54.650Z,42.70
2022-12-17T12:00:04.488Z,43.83
2022-12-17T12:03:16.829Z,48.30
2022-12-17T12:06:12.023Z,40.47
2022-12-17T12:09:13.359Z,47.22
2022-12-17T12:12:15.535Z,39.75
2022-12-17T12:15:41.521Z,42.95
2022-12-17T12:18:47.898Z,40.95
2022-12-17T12:21:44.092Z,45.40
2022-12-17T12:25:02.292Z,48.78
2022-12-17T12:28:45.397Z,45.80
2022-12-17T12:32:07.568Z,43.95
2022-12-17T12:34:56.735Z,39.92
2022-12-17T12:37:43.087Z,41.15
2022-12-17T12:40:37.139Z,48.33
2022-12-17T12:43:44.149Z,47.55
2022-12-17T12:47:00.501Z,43.70
2022-12-17T12:50:17.391Z,48.83
2022-12-17T12:53:04.246Z,40.25
2022-12-17T12:55:58.664Z,44.13
2022-12-17T12:58:44.662Z,47.05
2022-12-17T13:01:31.474Z,44.92
2022-12-17T13:04:20.519Z,46.67
2022-12-17T13:09:38.603Z,54.42
2022-12-17T13:12:06.262Z,54.65
2022-12-17T13:14:47.761Z,43.95
2022-12-17T13:17:16.500Z,49.97
2022-12-17T13:19:58.977Z,52.08
2022-12-17T13:22:31.141Z,43.58
2022-12-17T13:25:37.525Z,49.83
2022-12-17T13:28:05.943Z,44.40
2022-12-17T13:30:35.315Z,31.47
2022-12-17T13:33:08.283Z,42.67
2022-12-17T13:36:03.227Z,48.70
2022-12-17T13:38:57.184Z,46.17
2022-12-17T13:41:44.151Z,48.38
2022-12-17T13:44:21.937Z,40.80
2022-12-17T13:46:52.421Z,42.67
2022-12-17T13:49:30.201Z,43.85
2022-12-17T13:52:11.147Z,49.23
2022-12-17T13:54:39.433Z,44.53
2022-12-17T13:57:13.775Z,49.17
2022-12-17T13:59:48.697Z,46.33
2022-12-17T14:02:29.971Z,47.40
2022-12-17T14:05:07.460Z,52.15
2022-12-17T14:07:39.087Z,41.65
2022-12-17T14:10:16.039Z,43.80
2022-12-17T14:12:43.650Z,42.20
2022-12-17T14:15:29.959Z,44.40
2022-12-17T14:17:59.285Z,49.90
2022-12-17T14:20:30.162Z,48.60
2022-12-17T14:23:08.546Z,44.28
2022-12-17T14:25:38.214Z,45.03
2022-12-17T14:28:21.506Z,40.42
2022-12-17T14:31:24.990Z,46.58
2022-12-17T14:33:38.397Z,45.90
2022-12-17T14:36:07.969Z,43.83
2022-12-17T14:38:38.996Z,46.13
2022-12-17T14:41:33.210Z,48.67
2022-12-17T14:44:02.731Z,47.47
2022-12-17T14:46:32.452Z,48.53
2022-12-17T14:49:02.915Z,44.03
2022-12-17T14:51:41.838Z,45.63
2022-12-17T14:54:25.984Z,48.08
2022-12-17T14:56:55.696Z,42.92
2022-12-17T14:59:37.990Z,50.03
2022-12-17T15:02:08.505Z,48.45
2022-12-17T15:04:38.072Z,45.15
2022-12-17T15:07:09.902Z,48.17
2022-12-17T15:09:42.154Z,49.95
2022-12-17T15:12:10.265Z,49.78
2022-12-17T15:14:37.687Z,36.08
2022-12-17T15:17:06.055Z,47.25
2022-12-17T15:19:33.779Z,53.10
2022-12-17T15:22:04.222Z,31.20
2022-12-17T15:24:32.146Z,45.72
2022-12-17T15:27:00.035Z,50.42
2022-12-17T15:29:28.904Z,46.63
2022-12-17T15:31:56.480Z,50.22
2022-12-17T15:34:23.912Z,48.58
2022-12-17T15:36:51.650Z,46.38
2022-12-17T15:39:19.333Z,49.30
2022-12-17T15:42:05.131Z,47.42
2022-12-17T15:44:32.924Z,45.33
2022-12-17T15:47:00.691Z,47.22
2022-12-17T15:49:29.223Z,44.38
2022-12-17T15:51:57.202Z,47.58
2022-12-17T15:54:25.369Z,47.38
2022-12-17T15:56:54.504Z,44.67
2022-12-17T15:59:22.790Z,47.65
2022-12-17T16:01:50.834Z,47.60
2022-12-17T16:04:24.650Z,37.70
2022-12-17T16:06:53.217Z,41.95
2022-12-17T16:09:24.613Z,49.88
2022-12-17T16:11:55.932Z,45.33
2022-12-17T16:14:24.568Z,49.95
2022-12-17T16:16:52.422Z,49.88
2022-12-17T16:19:22.994Z,47.15
2022-12-17T16:21:50.497Z,42.28
2022-12-17T16:24:18.814Z,47.65
2022-12-17T16:26:46.232Z,50.10
2022-12-17T16:29:13.747Z,44.50
2022-12-17T16:31:42.033Z,37.60
2022-12-17T16:34:11.048Z,49.03
2022-12-17T16:36:39.225Z,59.33
2022-12-17T16:39:06.780Z,41.42
2022-12-17T16:41:34.774Z,52.65
2022-12-17T16:44:03.214Z,49.47
2022-12-17T16:46:33.625Z,53.28
2022-12-17T16:49:11.059Z,52.63
2022-12-17T16:51:40.218Z,51.65
2022-12-17T16:54:09.010Z,50.58
2022-12-17T16:56:40.090Z,48.63
2022-12-17T16:59:09.678Z,50.88
2022-12-17T17:01:38.706Z,50.35
2022-12-17T17:04:08.038Z,47.22
2022-12-17T17:06:45.059Z,52.63
2022-12-17T17:09:14.531Z,46.30
2022-12-17T17:11:46.878Z,43.75
2022-12-17T17:14:17.343Z,41.78
2022-12-17T17:16:45.151Z,45.38
2022-12-17T17:19:13.072Z,40.88
2022-12-17T17:21:42.619Z,35.27
2022-12-17T17:24:20.932Z,44.22
2022-12-17T17:32:09.198Z,48.75
2022-12-17T17:34:33.285Z,38.45
2022-12-17T17:37:01.071Z,41.50
2022-12-17T17:39:33.055Z,43.35
2022-12-17T17:42:01.041Z,42.17
2022-12-17T17:44:28.726Z,47.30
2022-12-17T17:46:56.503Z,42.25
2022-12-17T17:49:24.507Z,45.70
2022-12-17T17:54:40.288Z,37.23
2022-12-17T17:57:09.342Z,39.58
2022-12-17T18:02:08.849Z,40.38
2022-12-17T18:04:36.652Z,41.65
2022-12-17T18:09:53.084Z,49.65
2022-12-17T18:12:39.678Z,49.75
2022-12-17T18:15:16.987Z,38.95
2022-12-17T18:17:54.840Z,39.50
2022-12-17T18:20:22.334Z,46.55
2022-12-17T18:22:50.585Z,39.45
2022-12-17T18:25:18.030Z,35.97
2022-12-17T18:27:45.816Z,43.20
2022-12-17T18:30:14.134Z,43.38
2022-12-17T18:32:42.079Z,40.03
2022-12-17T18:35:09.976Z,38.35
2022-12-17T18:37:38.184Z,41.33
2022-12-17T18:40:07.383Z,28.70
2022-12-17T18:42:53.692Z,37.65
2022-12-17T18:45:22.369Z,38.88
2022-12-17T18:47:50.898Z,40.28
2022-12-17T18:50:18.650Z,31.63
2022-12-17T18:52:46.152Z,39.35
2022-12-17T18:55:13.638Z,40.70
2022-12-17T18:57:41.132Z,43.17
2022-12-17T19:00:09.468Z,38.78
2022-12-17T19:02:37.534Z,33.55
2022-12-17T19:05:05.767Z,28.25
2022-12-17T19:07:33.783Z,39.40
2022-12-17T19:10:01.771Z,36.47
2022-12-17T19:12:29.742Z,30.13
2022-12-17T19:14:57.886Z,25.15
2022-12-17T19:17:26.516Z,37.30
2022-12-17T19:19:54.471Z,33.85
2022-12-17T19:22:22.479Z,30.13
2022-12-17T19:24:50.268Z,35.63
2022-12-17T19:27:17.727Z,32.35
2022-12-17T19:29:49.347Z,38.25
2022-12-17T19:32:17.606Z,37.97
2022-12-17T19:34:45.143Z,35.45
2022-12-17T19:37:13.188Z,34.15
2022-12-17T19:39:40.781Z,23.77
2022-12-17T19:42:24.783Z,27.13
2022-12-17T19:44:55.087Z,36.38
2022-12-17T19:47:23.878Z,30.02
2022-12-17T19:52:19.381Z,30.90
2022-12-17T19:54:47.174Z,20.70
2022-12-17T19:57:14.823Z,29.92
2022-12-17T19:59:42.266Z,35.10
2022-12-17T20:02:10.191Z,28.20
2022-12-17T20:04:37.869Z,23.17
2022-12-17T20:07:05.386Z,33.03
2022-12-17T20:09:32.986Z,33.78
2022-12-17T20:12:00.428Z,25.42
2022-12-17T20:14:29.330Z,27.80
2022-12-17T20:17:00.142Z,28.45
2022-12-17T20:19:33.245Z,28.02
2022-12-17T20:22:04.507Z,29.65
2022-12-17T20:24:32.517Z,35.43
2022-12-17T20:27:01.305Z,31.23
2022-12-17T20:29:29.643Z,30.83
2022-12-17T20:31:57.486Z,22.63
2022-12-17T20:34:25.642Z,19.73
2022-12-17T20:36:54.135Z,31.05
2022-12-17T20:39:27.287Z,28.52
2022-12-17T20:41:56.653Z,28.70
2022-12-17T20:46:51.802Z,30.35
2022-12-17T20:49:19.704Z,28.20
2022-12-17T20:51:47.434Z,28.65
2022-12-17T20:54:14.862Z,27.80
2022-12-17T20:56:42.329Z,26.17
2022-12-17T20:59:15.344Z,28.57
2022-12-17T21:01:43.174Z,32.63
2022-12-17T21:04:13.140Z,38.42
2022-12-17T21:06:46.111Z,30.48
2022-12-17T21:09:14.965Z,32.30
2022-12-17T21:11:42.813Z,26.77
2022-12-17T21:14:14.300Z,27.05
2022-12-17T21:16:43.462Z,30.30
2022-12-17T21:19:14.779Z,26.00
2022-12-17T21:21:44.042Z,28.40
2022-12-17T21:24:11.995Z,18.48
2022-12-17T21:26:42.160Z,24.53
2022-12-17T21:29:10.541Z,23.90
2022-12-17T21:31:40.920Z,24.10
2022-12-17T21:34:12.647Z,25.95
2022-12-17T21:36:41.310Z,24.63
2022-12-17T21:39:12.322Z,25.20
2022-12-17T21:41:44.734Z,23.45
2022-12-17T21:44:14.075Z,23.73
2022-12-17T21:46:44.036Z,19.25
2022-12-17T21:49:16.708Z,23.50
2022-12-17T21:51:44.507Z,21.95
2022-12-17T21:54:17.314Z,21.83
2022-12-17T21:56:47.811Z,25.27
2022-12-17T21:59:16.979Z,26.67
2022-12-17T22:01:44.760Z,20.42
2022-12-17T22:04:12.407Z,22.43
2022-12-17T22:06:47.247Z,24.25
2022-12-17T22:09:44.299Z,23.17
2022-12-17T22:12:27.984Z,21.48
2022-12-17T22:14:55.652Z,22.10
2022-12-17T22:17:23.614Z,21.30
2022-12-17T22:19:51.035Z,19.73
2022-12-17T22:22:18.765Z,25.03
2022-12-17T22:24:46.491Z,20.88
2022-12-17T22:27:14.214Z,22.90
2022-12-17T22:30:00.271Z,20.27
2022-12-17T22:32:45.792Z,17.67
2022-12-17T22:37:09.819Z,24.93
2022-12-17T22:40:27.888Z,27.25
2022-12-17T22:44:29.742Z,20.50
2022-12-17T22:44:45.327Z,24.87
2022-12-17T22:46:25.142Z,13.93
2022-12-17T22:48:53.181Z,23.48
2022-12-17T22:51:27.812Z,23.83
2022-12-17T22:54:01.390Z,21.77
2022-12-17T22:56:53.652Z,24.37
2022-12-17T22:59:18.984Z,23.23
2022-12-17T23:01:47.017Z,20.93
2022-12-17T23:04:16.753Z,22.63
2022-12-17T23:06:45.581Z,18.60
2022-12-17T23:11:41.827Z,16.77
2022-12-17T23:14:09.621Z,12.10
2022-12-17T23:16:40.542Z,13.23
2022-12-17T23:19:08.996Z,18.17
2022-12-17T23:21:36.789Z,18.25
2022-12-17T23:24:05.089Z,16.80
2022-12-17T23:26:36.110Z,12.82
2022-12-17T23:29:07.199Z,18.87
2022-12-17T23:31:38.508Z,16.70
2022-12-17T23:34:06.467Z,15.43
2022-12-17T23:36:35.332Z,11.67
2022-12-17T23:39:02.908Z,17.38
2022-12-17T23:41:31.806Z,11.35
2022-12-17T23:43:59.975Z,14.23
2022-12-17T23:46:29.661Z,15.63
2022-12-17T23:48:57.461Z,16.70
2022-12-17T23:51:25.562Z,14.40
2022-12-17T23:53:53.121Z,16.15
2022-12-17T23:56:22.991Z,14.77
2022-12-17T23:58:54.018Z,13.03
